Ride Results

Great Western (26-06-2011)
Ride distance: 80.0 km

Outcomes - Great Western (26-06-2011)
Division No. of Entries Retired / DNE Completed Withdrawn Ineligible V/O Percentage Completed
HW 8 - 7 - - 1 87.50%
MW 15 - 12 1 - 2 80.00%
LW 12 - 9 1 - 2 75.00%
JN 2 - 2 - - - 100.00%
Totals 37 - 30 2 - 5 81.08%
Results - Great Western (26-06-2011)
No. Rider Horse Place Time Leg Speeds Total
Km/Hr
H/R bpm
Heavyweight
135 Tamara Atkinson Ransom Bartholemew 1 (BC) 4:40:00 22.0, 14.0 17.14 38, 44, 41 (Avg:42)
337 Allison Whitney Destined For Dubai 2 5:07:00 20.6, 12.5 15.64 34, 45, 41 (Avg:43)
65 Carl Adamson Sundown Park Miss Jacob 3 5:54:00 14.2, 12.9 13.56 32, 44, 48 (Avg:46)
76 Russell Robinson Jayay Alishah 3 5:54:00 13.7, 13.3 13.56 35, 40, 55 (Avg:47)
111 Greg May Silhouette Rajah 5 6:09:00 13.1, 12.9 13.01 32, 40, 48 (Avg:44)
18 Ken Bradley Twin Peaks Kenny Karaoke 6 6:15:00 21.4, 9.1 12.80 38, 45, 51 (Avg:48)
115 Rod Mills Musical Gully Zanadu 7 6:41:00 12.5, 11.4 11.97 35, 40, 46 (Avg:43)
313 Dom Falcomer Dunele Lame L2 0:00:00 20.6, 12.5 - 40, 55, 59 (Avg:57)
Middleweight
77 Trish Reeves Kazzo Park Ausborn 1 (BC) 4:42:00 20.6, 14.4 17.02 29, 35, 34 (Avg:34)
758 Jess Welsh Pyrenees Khan 2 6:12:00 12.9, 12.8 12.90 28, 42, 53 (Avg:47)
351 Steve Blackhurst Drumlin Hobart 3 6:15:00 12.9, 12.6 12.80 30, 42, 44 (Avg:43)
219 Caroline Noble Drumlin Moonfrost 4 6:15:01 11.1, 15.0 12.80 28, 39, 43 (Avg:41)
107 Jo Brock Im Not Shy (Lady) 5 7:06:00 12.9, 9.9 11.27 23, 38, 49 (Avg:43)
42 Hans Peuker Marybank Marlee 6 7:17:00 12.1, 10.0 10.98 34, 44, 59 (Avg:51)
138 Emma Sellens Musical Gully Legato 6 7:17:00 12.4, 9.8 10.98 35, 41, 43 (Avg:42)
746 Leonie Goode Ben 10 8 7:18:00 12.4, 9.7 10.96 30, 46, 57 (Avg:51)
100 Fay Bushby Western Bey 9 7:20:00 11.4, 10.4 10.91 35, 42, 43 (Avg:42)
755 Rachael Laidlaw Bushies Luthien 9 7:20:00 11.4, 10.4 10.91 32, 46, 50 (Avg:48)
181 Sharee Court Makaveli Soulja 11 7:28:00 11.0, 10.3 10.71 39, 46, 49 (Avg:47)
89 Sheryl Herbert Krishlah Maleeka 11 7:28:00 11.0, 10.3 10.71 32, 41, 51 (Avg:46)
215 Kim Fitzpatrick Cieanna Heart Rate L2 0:00:00 21.4, 12.6 - 34, 47, 62 (Avg:54)
69 Sue Cavill Koonwarra Kavalier Lame L1 0:00:00 12.5 - 30, 42 (Avg:42)
756 Patricia Radke Just Shakira Withdrawn L1 0:00:00 - - 35, 0 (Avg:0)
Lightweight
740 Jessica Aistrope Granjen Ruben James 1 5:24:00 14.9, 14.6 14.81 34, 45, 48 (Avg:46)
11 Rohan Stanes Shuja Bint Melika 1 (BC) 5:24:00 15.1, 14.4 14.81 24, 38, 40 (Avg:39)
91 Kim Noble Monkhani Lodge Nobles Locket 3 6:09:00 13.1, 12.9 13.01 31, 47, 51 (Avg:49)
751 Rebecca Stoneman El Raz Naarkeeta 4 6:15:00 12.9, 12.6 12.80 33, 35, 42 (Avg:38)
61 Lois Sharam Al Bahir 5 6:41:00 12.5, 11.4 11.97 30, 38, 46 (Avg:42)
743 Leanne Wyllie DunBraeton Nova 5 6:41:00 12.5, 11.4 11.97 35, 46, 50 (Avg:48)
73 Rachael Saunders CaohminHank 7 6:57:00 12.3, 10.7 11.51 34, 48, 51 (Avg:49)
183 Nicky Robinson Sterling Soldier 8 7:22:00 12.2, 9.7 10.86 41, 43 (Avg:42)
744 Sharyn Wyatt BJ 8 7:22:00 12.2, 9.7 10.86 34, 44, 42 (Avg:43)
745 Michelle Cranston Chardonnay Park Rasheeka Lame L2 0:00:00 12.2, 9.7 - 56, 41, 45 (Avg:43)
752 Tanya Perry T'Neesha Lame L1 0:00:00 13.1 - 57, 50 (Avg:50)
151 Kasey Thomas Yalandra Charisma Withdrawn L1 0:00:00 - - 30, 40 (Avg:40)
Junior
90 Samantha Noble Springridge Bungendore 1 (BC) 5:54:00 14.2, 12.9 13.56 31, 41, 40 (Avg:40)
148 Stevie-lyn Oborne LadyBlaze 2 6:29:00 13.1, 11.5 12.34 42, 47, 55 (Avg:51)